Ogallah, Kansas
Current Conditions -  °F | °C
As of 10:55 PM on Friday 24 Oct 2014 (Local Time) from KHYS Reporting Station
Clear Clear  
Wind Chill: 63°   Ceiling: Unl
Heat Index: 63°   Visibility: 10mi
Dew Point: 48°   Wind: 5mph
Humidity: 59%   Direction: 270°W
Pressure: 30.03"   Gusts: NA
Location:  38.99°N, 99.73°W
Report Text: KHYS 250355Z AUTO 27004KT 10SM CLR 17/09 A3003 RMK AO1
Loading
Personal Weather Stations






























Interactive Weather Map
Tropical Storm Tracking
New forecast layout! Learn more

10-Day Weather Forecast

Advertisements
Track Severe Weather on mobile